createdAt,value
2018-07-11T00:01:24.951Z,41.53
2018-07-11T00:03:55.380Z,33.40
2018-07-11T00:06:26.264Z,32.97
2018-07-11T00:08:55.932Z,41.40
2018-07-11T00:11:24.892Z,39.55
2018-07-11T00:13:54.164Z,46.50
2018-07-11T00:16:23.707Z,37.93
2018-07-11T00:18:53.570Z,30.07
2018-07-11T00:21:22.552Z,30.87
2018-07-11T00:23:52.106Z,49.00
2018-07-11T00:26:21.536Z,36.83
2018-07-11T00:28:52.058Z,39.30
2018-07-11T00:31:21.553Z,39.33
2018-07-11T00:33:51.792Z,36.47
2018-07-11T00:36:22.290Z,46.27
2018-07-11T00:38:52.082Z,44.80
2018-07-11T00:41:22.405Z,39.70
2018-07-11T00:43:52.386Z,43.20
2018-07-11T00:46:23.316Z,48.40
2018-07-11T00:48:52.882Z,42.10
2018-07-11T00:51:22.442Z,51.10
2018-07-11T00:53:52.056Z,39.73
2018-07-11T00:56:21.474Z,43.97
2018-07-11T00:58:51.606Z,42.97
2018-07-11T01:01:20.810Z,44.73
2018-07-11T01:03:55.519Z,37.77
2018-07-11T01:06:24.470Z,33.33
2018-07-11T01:08:57.412Z,43.43
2018-07-11T01:11:31.114Z,44.17
2018-07-11T01:14:00.399Z,34.03
2018-07-11T01:16:30.510Z,39.33
2018-07-11T01:19:04.556Z,45.10
2018-07-11T01:21:38.394Z,46.10
2018-07-11T01:24:08.565Z,42.67
2018-07-11T01:26:39.078Z,39.30
2018-07-11T01:29:09.423Z,39.00
2018-07-11T01:31:39.686Z,34.77
2018-07-11T01:34:09.134Z,33.77
2018-07-11T01:36:38.808Z,34.97
2018-07-11T01:39:09.217Z,29.60
2018-07-11T01:41:43.828Z,33.00
2018-07-11T01:44:14.102Z,45.00
2018-07-11T01:46:49.245Z,38.10
2018-07-11T01:49:18.720Z,33.75
2018-07-11T01:51:59.451Z,29.70
2018-07-11T01:54:29.414Z,28.57
2018-07-11T01:56:59.222Z,21.07
2018-07-11T01:59:32.213Z,33.10
2018-07-11T02:02:04.982Z,34.17
2018-07-11T02:04:36.585Z,24.47
2018-07-11T02:07:06.968Z,28.93
2018-07-11T02:09:36.193Z,25.05
2018-07-11T02:12:05.850Z,34.50
2018-07-11T02:14:36.824Z,29.50
2018-07-11T02:17:06.345Z,23.30
2018-07-11T02:19:36.216Z,24.80
2018-07-11T02:22:06.425Z,30.93
2018-07-11T02:24:36.879Z,24.90
2018-07-11T02:27:06.752Z,22.20
2018-07-11T02:29:36.142Z,26.00
2018-07-11T02:32:05.785Z,25.07
2018-07-11T02:34:35.635Z,29.63
2018-07-11T02:37:05.179Z,23.03
2018-07-11T02:39:35.128Z,18.60
2018-07-11T02:42:05.434Z,22.17
2018-07-11T02:44:35.183Z,34.03
2018-07-11T02:47:10.231Z,24.50
2018-07-11T02:49:39.740Z,23.70
2018-07-11T02:52:09.436Z,20.87
2018-07-11T02:54:38.988Z,32.87
2018-07-11T02:57:09.363Z,24.67
2018-07-11T02:59:39.165Z,23.70
2018-07-11T03:02:08.402Z,18.93
2018-07-11T03:04:38.014Z,24.77
2018-07-11T03:07:08.509Z,22.70
2018-07-11T03:09:38.107Z,17.10
2018-07-11T03:12:07.611Z,29.10
2018-07-11T03:14:39.415Z,32.67
2018-07-11T03:17:08.932Z,23.53
2018-07-11T03:19:42.969Z,26.20
2018-07-11T03:22:21.217Z,23.83
2018-07-11T03:24:57.111Z,26.27
2018-07-11T03:27:33.433Z,25.43
2018-07-11T03:30:09.635Z,22.70
2018-07-11T03:32:39.610Z,28.03
2018-07-11T03:35:09.609Z,19.23
2018-07-11T03:37:39.344Z,23.60
2018-07-11T03:40:09.559Z,27.70
2018-07-11T03:42:39.633Z,19.53
2018-07-11T03:45:08.743Z,22.70
2018-07-11T03:47:38.948Z,22.83
2018-07-11T03:50:08.546Z,21.63
2018-07-11T03:52:38.058Z,23.13
2018-07-11T03:55:07.419Z,25.23
2018-07-11T03:57:36.945Z,25.20
2018-07-11T04:00:06.569Z,20.43
2018-07-11T04:02:36.035Z,25.40
2018-07-11T04:05:05.380Z,27.23
2018-07-11T04:07:34.664Z,25.60
2018-07-11T04:10:04.709Z,24.17
2018-07-11T04:12:34.184Z,26.53
2018-07-11T04:15:04.153Z,25.73
2018-07-11T04:17:33.846Z,29.07
2018-07-11T04:20:03.620Z,32.30
2018-07-11T04:22:33.128Z,19.67
2018-07-11T04:25:02.782Z,29.93
2018-07-11T04:27:32.519Z,22.30
2018-07-11T04:30:02.142Z,22.80
2018-07-11T04:32:31.860Z,22.57
2018-07-11T04:35:01.456Z,21.25
2018-07-11T04:37:30.986Z,21.00
2018-07-11T04:40:00.424Z,25.90
2018-07-11T04:42:30.549Z,29.67
2018-07-11T04:45:00.316Z,34.20
2018-07-11T04:47:29.924Z,28.63
2018-07-11T04:49:59.578Z,33.30
2018-07-11T04:52:29.464Z,29.27
2018-07-11T04:55:00.214Z,28.37
2018-07-11T04:57:29.791Z,24.47
2018-07-11T04:59:59.520Z,29.90
2018-07-11T05:02:29.472Z,20.37
2018-07-11T05:04:59.839Z,27.10
2018-07-11T05:07:30.335Z,25.10
2018-07-11T05:10:01.439Z,23.10
2018-07-11T05:12:31.095Z,17.13
2018-07-11T05:15:01.348Z,17.53
2018-07-11T05:17:32.168Z,16.50
2018-07-11T05:20:01.718Z,19.37
2018-07-11T05:22:31.895Z,16.80
2018-07-11T05:25:02.030Z,17.07
2018-07-11T05:27:31.698Z,18.67
2018-07-11T05:30:02.006Z,16.60
2018-07-11T05:32:31.546Z,24.75
2018-07-11T05:35:00.937Z,21.87
2018-07-11T05:37:30.914Z,22.13
2018-07-11T05:40:00.706Z,20.37
2018-07-11T05:42:39.209Z,14.75
2018-07-11T05:45:10.836Z,18.50
2018-07-11T05:47:40.962Z,17.50
2018-07-11T05:50:10.518Z,23.93
2018-07-11T05:52:39.674Z,21.77
2018-07-11T05:55:09.654Z,18.90
2018-07-11T05:57:39.045Z,20.97
2018-07-11T06:00:09.649Z,21.23
2018-07-11T06:02:39.599Z,24.30
2018-07-11T06:05:09.343Z,18.40
2018-07-11T06:07:39.064Z,18.90
2018-07-11T06:10:09.513Z,13.83
2018-07-11T06:12:38.746Z,17.77
2018-07-11T06:15:08.086Z,17.77
2018-07-11T06:17:38.574Z,20.30
2018-07-11T06:20:09.078Z,16.15
2018-07-11T06:22:40.198Z,16.53
2018-07-11T06:25:10.461Z,15.43
2018-07-11T06:27:40.178Z,14.70
2018-07-11T06:30:09.677Z,16.00
2018-07-11T06:32:41.291Z,12.43
2018-07-11T06:35:11.558Z,18.03
2018-07-11T06:37:41.251Z,16.53
2018-07-11T06:40:11.426Z,14.67
2018-07-11T06:42:53.086Z,14.77
2018-07-11T06:45:39.315Z,14.07
2018-07-11T06:48:23.562Z,14.03
2018-07-11T06:50:54.557Z,13.07
2018-07-11T06:53:25.438Z,16.60
2018-07-11T06:55:55.006Z,13.40
2018-07-11T06:58:26.470Z,14.70
2018-07-11T07:01:01.424Z,12.00
2018-07-11T07:03:37.119Z,14.83
2018-07-11T07:06:08.925Z,10.77
2018-07-11T07:08:49.343Z,12.83
2018-07-11T07:11:29.881Z,12.73
2018-07-11T07:14:13.814Z,11.70
2018-07-11T07:16:55.994Z,12.77
2018-07-11T07:19:37.764Z,12.90
2018-07-11T07:22:19.476Z,14.53
2018-07-11T07:25:02.550Z,10.17
2018-07-11T07:27:43.997Z,8.83
2018-07-11T07:30:23.960Z,10.03
2018-07-11T07:33:06.160Z,16.50
2018-07-11T07:35:47.352Z,11.70
2018-07-11T07:38:24.421Z,12.47
2018-07-11T07:41:04.861Z,8.50
2018-07-11T07:43:47.794Z,10.87
2018-07-11T07:46:30.077Z,12.40
2018-07-11T07:49:12.506Z,9.97
2018-07-11T07:51:54.353Z,11.63
2018-07-11T07:54:34.541Z,8.13
2018-07-11T07:57:15.437Z,9.30
2018-07-11T08:00:00.594Z,11.00
2018-07-11T08:02:44.593Z,10.77
2018-07-11T08:05:27.105Z,8.13
2018-07-11T08:08:10.263Z,11.10
2018-07-11T08:10:50.309Z,12.87
2018-07-11T08:13:38.829Z,9.03
2018-07-11T08:16:20.447Z,8.77
2018-07-11T08:19:04.881Z,11.27
2018-07-11T08:21:50.483Z,9.07
2018-07-11T08:24:41.623Z,5.80
2018-07-11T08:27:31.317Z,9.80
2018-07-11T08:30:20.425Z,8.93
2018-07-11T08:33:10.255Z,10.90
2018-07-11T08:36:00.425Z,8.53
2018-07-11T08:38:52.701Z,8.43
2018-07-11T08:41:34.157Z,11.03
2018-07-11T08:45:30.294Z,9.83
2018-07-11T08:50:31.907Z,6.97
2018-07-11T08:53:24.774Z,7.33
2018-07-11T08:58:16.065Z,7.70
2018-07-11T09:02:04.082Z,6.77
2018-07-11T09:06:01.760Z,8.63
2018-07-11T09:08:56.394Z,10.47
2018-07-11T09:11:39.072Z,9.10
2018-07-11T09:14:27.055Z,10.93
2018-07-11T09:19:12.760Z,6.63
2018-07-11T09:21:56.430Z,3.73
2018-07-11T09:24:46.265Z,4.37
2018-07-11T09:27:16.090Z,7.23
2018-07-11T09:29:46.387Z,9.93
2018-07-11T09:32:17.059Z,12.65
2018-07-11T09:34:47.371Z,4.70
2018-07-11T09:37:16.847Z,4.87
2018-07-11T09:39:46.057Z,7.10
2018-07-11T09:42:15.819Z,5.77
2018-07-11T09:44:45.355Z,7.27
2018-07-11T09:47:20.371Z,12.77
2018-07-11T09:49:50.543Z,6.97
2018-07-11T09:52:20.301Z,5.63
2018-07-11T09:54:49.827Z,7.90
2018-07-11T09:57:19.813Z,5.07
2018-07-11T09:59:49.584Z,5.60
2018-07-11T10:02:19.351Z,6.93
2018-07-11T10:04:49.193Z,6.73
2018-07-11T10:07:18.502Z,5.67
2018-07-11T10:09:48.142Z,7.03
2018-07-11T10:12:18.115Z,8.43
2018-07-11T10:14:48.348Z,5.80
2018-07-11T10:17:17.502Z,4.20
2018-07-11T10:19:47.055Z,5.77
2018-07-11T10:22:16.867Z,6.80
2018-07-11T10:24:49.064Z,5.67
2018-07-11T10:27:19.528Z,5.73
2018-07-11T10:31:18.496Z,5.33
2018-07-11T10:33:48.198Z,6.80
2018-07-11T10:36:17.953Z,7.33
2018-07-11T10:38:47.462Z,5.03
2018-07-11T10:41:18.198Z,5.37
2018-07-11T10:43:48.120Z,6.13
2018-07-11T10:46:17.868Z,5.85
2018-07-11T10:48:48.312Z,8.13
2018-07-11T10:51:18.788Z,8.43
2018-07-11T10:53:48.902Z,3.63
2018-07-11T10:56:18.468Z,7.00
2018-07-11T10:59:51.708Z,5.67
2018-07-11T11:02:22.900Z,3.97
2018-07-11T11:04:53.488Z,6.07
2018-07-11T11:07:23.820Z,5.67
2018-07-11T11:09:53.572Z,5.87
2018-07-11T11:12:23.258Z,7.17
2018-07-11T11:14:52.432Z,5.73
2018-07-11T11:17:21.848Z,3.83
2018-07-11T11:19:51.386Z,8.20
2018-07-11T11:22:22.222Z,5.50
2018-07-11T11:24:51.812Z,4.87
2018-07-11T11:27:21.509Z,8.00
2018-07-11T11:29:52.104Z,5.40
2018-07-11T11:32:21.982Z,4.13
2018-07-11T11:34:51.709Z,3.77
2018-07-11T11:37:21.430Z,3.83
2018-07-11T11:39:51.099Z,4.83
2018-07-11T11:42:21.140Z,5.10
2018-07-11T11:44:50.437Z,4.70
2018-07-11T11:47:25.865Z,5.90
2018-07-11T11:49:56.383Z,5.40
2018-07-11T11:52:26.090Z,4.57
2018-07-11T11:54:55.434Z,4.77
2018-07-11T11:57:25.885Z,7.63
2018-07-11T11:59:57.091Z,5.60
2018-07-11T12:02:26.761Z,6.47
2018-07-11T12:04:56.203Z,5.73
2018-07-11T12:07:25.607Z,3.60
2018-07-11T12:09:55.165Z,9.17
2018-07-11T12:12:24.492Z,8.50
2018-07-11T12:14:53.990Z,9.43
2018-07-11T12:17:23.501Z,12.37
2018-07-11T12:19:53.085Z,9.40
2018-07-11T12:22:24.439Z,11.00
2018-07-11T12:24:54.096Z,8.37
2018-07-11T12:27:23.475Z,8.53
2018-07-11T12:29:53.278Z,8.07
2018-07-11T12:32:23.508Z,10.33
2018-07-11T12:34:52.522Z,11.07
2018-07-11T12:37:22.190Z,10.03
2018-07-11T12:39:51.846Z,10.40
2018-07-11T12:42:21.444Z,11.53
2018-07-11T12:44:51.386Z,10.57
2018-07-11T12:47:26.618Z,12.40
2018-07-11T12:49:56.245Z,9.80
2018-07-11T12:52:25.960Z,8.77
2018-07-11T12:54:56.062Z,8.40
2018-07-11T12:57:26.293Z,9.27
2018-07-11T12:59:56.409Z,10.23
2018-07-11T13:02:25.821Z,8.13
2018-07-11T13:04:55.391Z,9.87
2018-07-11T13:07:25.577Z,11.03
2018-07-11T13:09:55.673Z,8.67
2018-07-11T13:12:25.215Z,9.53
2018-07-11T13:14:55.835Z,9.90
2018-07-11T13:17:25.853Z,8.20
2018-07-11T13:19:55.255Z,8.73
2018-07-11T13:22:24.672Z,7.90
2018-07-11T13:24:55.010Z,11.13
2018-07-11T13:27:24.804Z,10.87
2018-07-11T13:29:54.357Z,8.73
2018-07-11T13:32:26.833Z,7.30
2018-07-11T13:34:57.216Z,9.77
2018-07-11T13:37:27.007Z,5.23
2018-07-11T13:39:57.147Z,6.97
2018-07-11T13:42:27.355Z,9.90
2018-07-11T13:44:57.201Z,6.33
2018-07-11T13:47:27.675Z,8.20
2018-07-11T13:49:58.199Z,8.27
2018-07-11T13:52:28.831Z,5.57
2018-07-11T13:54:58.890Z,7.80
2018-07-11T13:57:29.246Z,11.50
2018-07-11T13:59:59.112Z,7.53
2018-07-11T14:02:28.844Z,6.77
2018-07-11T14:04:58.371Z,4.13
2018-07-11T14:07:28.105Z,7.73
2018-07-11T14:09:58.710Z,4.77
2018-07-11T14:12:28.576Z,3.97
2018-07-11T14:14:58.259Z,5.90
2018-07-11T14:17:28.101Z,6.73
2018-07-11T14:19:57.179Z,10.13
2018-07-11T14:24:52.317Z,9.77
2018-07-11T14:27:22.666Z,5.73
2018-07-11T14:29:53.518Z,11.53
2018-07-11T14:32:26.533Z,5.13
2018-07-11T14:34:56.239Z,5.37
2018-07-11T14:37:26.344Z,8.57
2018-07-11T14:39:55.875Z,5.23
2018-07-11T14:42:26.346Z,6.87
2018-07-11T14:44:56.609Z,6.23
2018-07-11T14:47:31.922Z,7.60
2018-07-11T14:50:03.767Z,5.33
2018-07-11T14:52:33.444Z,6.80
2018-07-11T14:55:04.386Z,13.60
2018-07-11T14:57:34.743Z,8.67
2018-07-11T15:00:04.346Z,6.40
2018-07-11T15:02:33.966Z,7.60
2018-07-11T15:05:03.688Z,7.53
2018-07-11T15:07:34.977Z,6.83
2018-07-11T15:10:04.515Z,6.70
2018-07-11T15:12:34.128Z,5.63
2018-07-11T15:15:03.813Z,6.07
2018-07-11T15:17:33.778Z,6.83
2018-07-11T15:20:03.417Z,6.57
2018-07-11T15:22:33.911Z,8.33
2018-07-11T15:25:04.281Z,7.10
2018-07-11T15:27:34.460Z,6.07
2018-07-11T15:30:04.851Z,8.10
2018-07-11T15:32:35.365Z,5.90
2018-07-11T15:35:05.428Z,10.20
2018-07-11T15:37:35.349Z,8.03
2018-07-11T15:40:06.671Z,7.70
2018-07-11T15:42:36.951Z,11.30
2018-07-11T15:45:06.637Z,8.90
2018-07-11T15:47:36.582Z,7.77
2018-07-11T15:50:06.156Z,9.73
2018-07-11T15:52:35.937Z,5.03
2018-07-11T15:55:06.113Z,8.73
2018-07-11T15:57:54.256Z,7.83
2018-07-11T16:00:27.802Z,10.07
2018-07-11T16:02:57.784Z,7.10
2018-07-11T16:05:30.983Z,6.37
2018-07-11T16:08:06.977Z,10.33
2018-07-11T16:10:46.257Z,5.77
2018-07-11T16:13:15.398Z,11.47
2018-07-11T16:15:46.104Z,6.20
2018-07-11T16:18:16.574Z,10.53
2018-07-11T16:20:46.221Z,9.10
2018-07-11T16:23:15.430Z,6.77
2018-07-11T16:25:45.046Z,6.50
2018-07-11T16:28:14.863Z,9.17
2018-07-11T16:30:44.679Z,10.57
2018-07-11T16:33:14.112Z,8.50
2018-07-11T16:35:43.819Z,8.30
2018-07-11T16:38:13.409Z,10.53
2018-07-11T16:40:43.066Z,5.43
2018-07-11T16:43:14.379Z,6.70
2018-07-11T16:45:45.292Z,12.17
2018-07-11T16:48:15.081Z,9.53
2018-07-11T16:50:44.911Z,9.63
2018-07-11T16:53:14.667Z,9.13
2018-07-11T16:55:44.429Z,8.80
2018-07-11T16:58:18.540Z,9.07
2018-07-11T17:00:50.408Z,12.93
2018-07-11T17:03:20.574Z,8.83
2018-07-11T17:05:59.841Z,9.27
2018-07-11T17:08:36.626Z,7.30
2018-07-11T17:11:18.376Z,7.80
2018-07-11T17:13:51.415Z,10.03
2018-07-11T17:16:25.071Z,7.80
2018-07-11T17:19:05.082Z,10.00
2018-07-11T17:21:44.699Z,9.93
2018-07-11T17:24:18.771Z,5.50
2018-07-11T17:26:49.686Z,8.00
2018-07-11T17:29:24.447Z,6.90
2018-07-11T17:32:04.646Z,9.43
2018-07-11T17:34:35.802Z,8.83
2018-07-11T17:37:08.484Z,10.70
2018-07-11T17:40:13.186Z,8.73
2018-07-11T17:42:44.594Z,13.13
2018-07-11T17:45:17.413Z,7.30
2018-07-11T17:50:02.625Z,9.30
2018-07-11T17:52:42.055Z,10.50
2018-07-11T17:55:15.353Z,7.77
2018-07-11T17:57:52.924Z,8.43
2018-07-11T18:00:28.353Z,9.30
2018-07-11T18:03:09.339Z,6.73
2018-07-11T18:05:44.442Z,8.73
2018-07-11T18:08:13.998Z,6.90
2018-07-11T18:10:48.944Z,8.77
2018-07-11T18:13:29.394Z,12.90
2018-07-11T18:17:06.645Z,9.80
2018-07-11T18:21:15.500Z,8.87
2018-07-11T18:23:55.162Z,14.50
2018-07-11T18:28:39.612Z,15.43
2018-07-11T18:31:21.336Z,9.50
2018-07-11T18:47:02.604Z,9.50
2018-07-11T18:49:35.318Z,8.93
2018-07-11T18:52:43.355Z,10.97
2018-07-11T18:55:28.676Z,9.20
2018-07-11T18:58:16.320Z,10.67
2018-07-11T19:01:55.564Z,14.77
2018-07-11T19:04:29.621Z,14.23
2018-07-11T19:08:09.066Z,12.20
2018-07-11T19:10:51.756Z,10.97
2018-07-11T19:13:40.978Z,16.40
2018-07-11T19:17:46.131Z,10.03
2018-07-11T19:20:25.775Z,14.80
2018-07-11T19:23:21.305Z,19.70
2018-07-11T19:27:01.620Z,16.00
2018-07-11T19:30:16.526Z,15.10
2018-07-11T19:33:58.308Z,22.73
2018-07-11T19:37:11.575Z,15.77
2018-07-11T19:39:45.650Z,17.57
2018-07-11T19:44:33.178Z,17.97
2018-07-11T19:47:31.967Z,14.73
2018-07-11T19:50:12.366Z,13.53
2018-07-11T19:52:53.502Z,14.40
2018-07-11T19:56:28.113Z,15.73
2018-07-11T19:58:58.144Z,18.50
2018-07-11T20:01:27.777Z,16.73
2018-07-11T20:03:57.781Z,20.33
2018-07-11T20:06:28.096Z,18.70
2018-07-11T20:08:58.194Z,15.60
2018-07-11T20:11:28.490Z,18.07
2018-07-11T20:13:58.591Z,21.03
2018-07-11T20:16:28.648Z,18.23
2018-07-11T20:18:58.145Z,20.97
2018-07-11T20:21:28.509Z,20.50
2018-07-11T20:23:57.782Z,16.80
2018-07-11T20:26:27.568Z,19.93
2018-07-11T20:28:57.404Z,19.87
2018-07-11T20:31:28.066Z,19.13
2018-07-11T20:33:58.146Z,15.17
2018-07-11T20:36:27.574Z,22.33
2018-07-11T20:38:57.546Z,19.10
2018-07-11T20:41:27.034Z,18.53
2018-07-11T20:43:57.427Z,24.33
2018-07-11T20:46:27.764Z,19.23
2018-07-11T20:48:57.149Z,18.93
2018-07-11T20:51:26.519Z,20.90
2018-07-11T20:53:55.455Z,18.27
2018-07-11T20:56:25.478Z,21.63
2018-07-11T20:59:06.022Z,21.07
2018-07-11T21:02:46.784Z,22.10
2018-07-11T21:05:27.384Z,23.33
2018-07-11T21:08:50.371Z,17.73
2018-07-11T21:11:36.778Z,20.60
2018-07-11T21:14:47.327Z,18.97
2018-07-11T21:17:27.729Z,21.93
2018-07-11T21:19:57.289Z,19.83
2018-07-11T21:22:27.258Z,20.67
2018-07-11T21:24:56.901Z,22.17
2018-07-11T21:27:27.276Z,23.23
2018-07-11T21:29:57.342Z,17.43
2018-07-11T21:32:26.863Z,22.47
2018-07-11T21:34:56.426Z,19.97
2018-07-11T21:37:26.532Z,23.73
2018-07-11T21:39:55.914Z,16.90
2018-07-11T21:42:25.506Z,22.97
2018-07-11T21:44:55.047Z,20.90
2018-07-11T21:47:24.583Z,24.23
2018-07-11T21:49:54.280Z,25.20
2018-07-11T21:52:24.487Z,21.67
2018-07-11T21:54:53.817Z,26.43
2018-07-11T21:57:23.920Z,22.20
2018-07-11T21:59:53.870Z,26.13
2018-07-11T22:02:23.417Z,21.90
2018-07-11T22:04:53.171Z,25.50
2018-07-11T22:07:22.814Z,25.73
2018-07-11T22:09:52.508Z,23.63
2018-07-11T22:12:22.426Z,31.57
2018-07-11T22:14:52.263Z,26.10
2018-07-11T22:18:34.787Z,30.47
2018-07-11T22:21:03.840Z,27.53
2018-07-11T22:23:32.094Z,27.07
2018-07-11T22:26:00.845Z,24.70
2018-07-11T22:28:29.675Z,22.67
2018-07-11T22:30:57.746Z,23.50
2018-07-11T22:33:25.894Z,23.00
2018-07-11T22:35:54.076Z,19.57
2018-07-11T22:38:22.263Z,20.87
2018-07-11T22:40:50.342Z,18.37
2018-07-11T22:43:18.429Z,23.25
2018-07-11T22:45:46.566Z,20.63
2018-07-11T22:48:14.861Z,18.77
2018-07-11T22:50:42.986Z,20.47
2018-07-11T22:53:11.508Z,21.93
2018-07-11T22:55:39.541Z,21.77
2018-07-11T22:58:07.707Z,21.47
2018-07-11T23:00:36.228Z,22.97
2018-07-11T23:03:04.513Z,22.87
2018-07-11T23:05:32.573Z,22.40
2018-07-11T23:08:01.108Z,22.10
2018-07-11T23:10:29.073Z,21.97
2018-07-11T23:12:57.292Z,17.77
2018-07-11T23:15:25.453Z,25.23
2018-07-11T23:17:53.486Z,23.47
2018-07-11T23:20:21.685Z,17.97
2018-07-11T23:22:50.005Z,21.90
2018-07-11T23:25:18.255Z,17.17
2018-07-11T23:27:46.417Z,19.97
2018-07-11T23:30:15.253Z,21.83
2018-07-11T23:32:43.373Z,20.30
2018-07-11T23:35:11.614Z,19.40
2018-07-11T23:37:39.691Z,19.90
2018-07-11T23:40:07.955Z,21.03
2018-07-11T23:42:36.252Z,21.70
2018-07-11T23:45:04.325Z,22.60
2018-07-11T23:47:32.591Z,17.30
2018-07-11T23:50:00.711Z,20.73
2018-07-11T23:52:29.204Z,15.93
2018-07-11T23:54:57.538Z,17.50
2018-07-11T23:57:25.636Z,21.35
2018-07-11T23:59:53.794Z,18.67
